Time;durP1;ratioP1;P1;durP2;ratioP2;P2;SDS_P1;SDS_P2;PMS_P1;PMS_P2;Temp;Humidity;BMP_temperature;BMP_pressure;BME280_temperature;BME280_humidity;BME280_pressure;Samples;Min_cycle;Max_cycle;Signal;HPM_P1;HPM_P2
2021/05/31 00:01:06;;;;;;;32.53;20.17;;;9.40;99.90;;;;;;5078407;27;20067;-62
2021/05/31 00:03:32;;;;;;;32.27;18.70;;;9.40;99.90;;;;;;5078105;28;20044;-62
2021/05/31 00:05:57;;;;;;;31.13;18.70;;;9.40;99.90;;;;;;5078704;28;20163;-62
2021/05/31 00:08:23;;;;;;;41.03;22.33;;;9.40;99.90;;;;;;5078304;28;20064;-62
2021/05/31 00:10:49;;;;;;;34.37;21.27;;;9.30;99.90;;;;;;5078167;28;20052;-62
2021/05/31 00:13:17;;;;;;;32.07;18.93;;;9.20;99.90;;;;;;5078492;28;20083;-62
2021/05/31 00:15:43;;;;;;;23.20;18.20;;;9.10;99.90;;;;;;5077853;28;20056;-62
2021/05/31 00:18:09;;;;;;;33.83;20.47;;;9.10;99.90;;;;;;5078726;27;20339;-62
2021/05/31 00:20:35;;;;;;;30.43;19.67;;;9.10;99.90;;;;;;5078634;28;20315;-63
2021/05/31 00:23:01;;;;;;;34.63;19.17;;;9.00;99.90;;;;;;5078305;28;20390;-62
2021/05/31 00:25:26;;;;;;;31.30;19.07;;;9.00;99.90;;;;;;5078782;28;20061;-62
2021/05/31 00:27:52;;;;;;;33.73;19.30;;;9.00;99.90;;;;;;5079466;28;20405;-63
2021/05/31 00:30:22;;;;;;;41.10;20.80;;;9.10;99.90;;;;;;5077908;28;20044;-62
2021/05/31 00:32:48;;;;;;;39.90;23.57;;;8.90;99.90;;;;;;5078133;28;20469;-62
2021/05/31 00:35:15;;;;;;;45.87;24.63;;;8.70;99.90;;;;;;5077458;27;20310;-64
2021/05/31 00:37:41;;;;;;;48.13;26.13;;;8.60;99.90;;;;;;5076863;28;20810;-62
2021/05/31 00:40:08;;;;;;;46.10;26.23;;;8.60;99.90;;;;;;5076630;27;20350;-64
2021/05/31 00:42:35;;;;;;;51.17;28.53;;;8.60;99.90;;;;;;5146550;27;20301;-62
2021/05/31 00:45:02;;;;;;;53.87;27.77;;;8.50;99.90;;;;;;5077247;28;20322;-62
2021/05/31 00:47:28;;;;;;;43.93;25.77;;;8.60;99.90;;;;;;5078208;27;20299;-62
2021/05/31 00:49:54;;;;;;;44.07;24.87;;;8.60;99.90;;;;;;5078024;28;20298;-63
2021/05/31 00:52:22;;;;;;;49.40;26.10;;;8.60;99.90;;;;;;5077688;28;20040;-62
2021/05/31 00:54:47;;;;;;;53.50;28.50;;;8.50;99.90;;;;;;5077037;27;20318;-62
2021/05/31 00:57:15;;;;;;;52.63;29.23;;;8.50;99.90;;;;;;5146468;27;20299;-62
2021/05/31 00:59:41;;;;;;;52.57;29.40;;;8.50;99.90;;;;;;5077634;27;20116;-62
2021/05/31 01:02:07;;;;;;;57.23;29.13;;;8.50;99.90;;;;;;5076927;28;20295;-62
2021/05/31 01:04:33;;;;;;;49.20;27.80;;;8.40;99.90;;;;;;5077918;27;20770;-62
2021/05/31 01:07:22;;;;;;;55.70;28.97;;;8.40;99.90;;;;;;5077224;28;20347;-61
2021/05/31 01:10:00;;;;;;;44.87;26.50;;;8.40;99.90;;;;;;5078739;28;20052;-62
2021/05/31 01:12:35;;;;;;;50.43;27.43;;;8.40;99.90;;;;;;5077629;28;20312;-62
2021/05/31 01:15:03;;;;;;;61.87;29.90;;;8.40;99.90;;;;;;5077304;27;20422;-62
2021/05/31 01:17:48;;;;;;;56.20;28.57;;;8.30;99.90;;;;;;5078109;27;20299;-63
2021/05/31 01:20:40;;;;;;;58.92;29.40;;;8.30;99.90;;;;;;5077189;28;20330;-63
2021/05/31 01:23:10;;;;;;;54.27;30.23;;;8.20;99.90;;;;;;5077360;28;20049;-62
2021/05/31 01:26:05;;;;;;;67.55;31.67;;;8.20;99.90;;;;;;5076786;28;20306;-62
2021/05/31 01:29:01;;;;;;;53.75;29.65;;;8.20;99.90;;;;;;5077415;28;20051;-62
2021/05/31 01:31:48;;;;;;;59.63;31.60;;;8.10;99.90;;;;;;5077585;28;20072;-62
2021/05/31 01:34:18;;;;;;;59.78;31.58;;;8.10;99.90;;;;;;5077878;28;20318;-62
2021/05/31 01:36:52;;;;;;;61.08;31.85;;;8.10;99.90;;;;;;5077810;28;20064;-62
2021/05/31 01:39:21;;;;;;;65.40;33.38;;;8.00;99.90;;;;;;5077487;28;20048;-63
2021/05/31 01:41:48;;;;;;;47.38;28.23;;;8.00;99.90;;;;;;5078910;27;20048;-62
2021/05/31 01:44:16;;;;;;;52.05;29.90;;;8.00;99.90;;;;;;5079135;28;20049;-62
2021/05/31 01:46:43;;;;;;;55.25;29.05;;;8.10;99.90;;;;;;5079639;27;20049;-62
2021/05/31 01:49:10;;;;;;;54.50;28.60;;;8.10;99.90;;;;;;5080281;27;20044;-61
2021/05/31 01:51:37;;;;;;;57.50;30.27;;;8.10;99.90;;;;;;5079353;28;20055;-62
2021/05/31 01:54:05;;;;;;;54.25;28.98;;;8.00;99.90;;;;;;5079434;28;20100;-62
2021/05/31 01:56:32;;;;;;;60.88;32.28;;;8.10;99.90;;;;;;5078883;28;20052;-62
2021/05/31 01:58:57;;;;;;;50.97;30.15;;;8.10;99.90;;;;;;5079636;28;20085;-61
2021/05/31 02:01:23;;;;;;;56.87;29.93;;;8.20;99.90;;;;;;5080182;28;20414;-62
2021/05/31 02:03:49;;;;;;;71.27;30.47;;;8.30;99.90;;;;;;5079621;28;20053;-61
2021/05/31 02:06:15;;;;;;;74.67;34.03;;;8.30;99.90;;;;;;5147526;27;20053;-62
2021/05/31 02:08:40;;;;;;;83.03;35.43;;;8.30;99.90;;;;;;5075870;28;20117;-62
2021/05/31 02:11:33;;;;;;;84.73;35.97;;;8.30;99.90;;;;;;5076044;28;20049;-61
2021/05/31 02:14:06;;;;;;;91.25;36.50;;;8.30;99.90;;;;;;5075678;27;20171;-63
2021/05/31 02:16:51;;;;;;;84.38;34.75;;;8.30;99.90;;;;;;5076893;28;20066;-63
2021/05/31 02:19:19;;;;;;;82.93;32.27;;;8.30;99.90;;;;;;5076219;28;20104;-61
2021/05/31 02:21:45;;;;;;;95.13;36.10;;;8.30;99.90;;;;;;5076553;28;20343;-62
2021/05/31 02:24:12;;;;;;;77.50;35.57;;;8.30;99.90;;;;;;5075970;28;20299;-62
2021/05/31 02:26:38;;;;;;;185.23;38.17;;;8.30;99.90;;;;;;5074959;28;20356;-61
2021/05/31 02:29:04;;;;;;;242.27;31.35;;;8.20;99.90;;;;;;5076781;28;20052;-62
2021/05/31 02:31:32;;;;;;;202.83;30.63;;;8.30;99.90;;;;;;5078721;28;20101;-62
2021/05/31 02:33:59;;;;;;;201.17;29.47;;;8.20;99.90;;;;;;5077935;27;20310;-62
2021/05/31 02:36:25;;;;;;;92.57;29.10;;;8.20;99.90;;;;;;5145832;27;20303;-62
2021/05/31 02:38:51;;;;;;;238.57;32.63;;;8.20;99.90;;;;;;5075234;28;20363;-61
2021/05/31 02:41:16;;;;;;;143.83;29.43;;;8.20;99.90;;;;;;5076485;27;20045;-61
2021/05/31 02:43:42;;;;;;;137.07;29.77;;;8.20;99.90;;;;;;5075927;28;20385;-62
2021/05/31 02:46:08;;;;;;;221.30;28.70;;;8.30;99.90;;;;;;5077971;28;20060;-62
2021/05/31 02:48:35;;;;;;;158.67;27.40;;;8.30;99.90;;;;;;5077075;28;21123;-62
2021/05/31 02:51:00;;;;;;;155.82;29.20;;;8.30;99.90;;;;;;5075495;28;20040;-62
2021/05/31 02:53:26;;;;;;;302.40;33.87;;;8.30;99.90;;;;;;5075300;28;20180;-62
2021/05/31 02:55:53;;;;;;;204.60;31.10;;;8.20;99.90;;;;;;5076224;27;20060;-62
2021/05/31 02:58:18;;;;;;;195.37;27.67;;;8.20;99.90;;;;;;5079629;27;20040;-62
2021/05/31 03:00:45;;;;;;;218.73;28.33;;;8.20;99.90;;;;;;5079331;28;20294;-62
2021/05/31 03:03:11;;;;;;;202.27;27.20;;;8.20;99.90;;;;;;5079894;28;20359;-62
2021/05/31 03:05:37;;;;;;;228.73;27.83;;;8.30;99.90;;;;;;5079787;28;20036;-62
2021/05/31 03:08:03;;;;;;;272.98;29.23;;;8.30;99.90;;;;;;5081712;28;20040;-62
2021/05/31 03:10:30;;;;;;;246.70;26.80;;;8.30;99.90;;;;;;5082334;27;20055;-62
2021/05/31 03:13:00;;;;;;;386.13;33.13;;;8.40;99.90;;;;;;5080227;28;20326;-62
2021/05/31 03:15:26;;;;;;;288.23;27.37;;;8.40;99.90;;;;;;5079881;27;20310;-62
2021/05/31 03:17:52;;;;;;;513.53;33.80;;;8.30;99.90;;;;;;5077903;28;20302;-62
2021/05/31 03:20:22;;;;;;;365.00;29.25;;;8.20;99.90;;;;;;5079641;28;20328;-62
2021/05/31 03:22:48;;;;;;;347.27;27.30;;;8.20;99.90;;;;;;5080514;27;20051;-62
2021/05/31 03:25:14;;;;;;;264.00;26.40;;;8.30;99.90;;;;;;5079350;28;20714;-62
2021/05/31 03:27:40;;;;;;;339.30;29.10;;;8.30;99.90;;;;;;5078927;27;20051;-62
2021/05/31 03:30:09;;;;;;;313.73;28.23;;;8.30;99.90;;;;;;5080903;28;20056;-62
2021/05/31 03:32:37;;;;;;;268.00;26.33;;;8.30;99.90;;;;;;5079989;27;20355;-62
2021/05/31 03:35:05;;;;;;;286.87;27.80;;;8.40;99.90;;;;;;5080274;28;20307;-61
2021/05/31 03:37:31;;;;;;;429.30;34.87;;;8.40;99.90;;;;;;5079649;27;20330;-63
2021/05/31 03:39:57;;;;;;;326.53;30.37;;;8.40;99.90;;;;;;5077111;27;20318;-62
2021/05/31 03:42:23;;;;;;;414.70;34.77;;;8.30;99.90;;;;;;5077173;27;20324;-61
2021/05/31 03:44:48;;;;;;;393.80;36.80;;;8.30;99.90;;;;;;5078086;28;20306;-61
2021/05/31 03:47:15;;;;;;;317.27;29.60;;;8.30;99.90;;;;;;5085816;28;20068;-61
2021/05/31 03:49:40;;;;;;;477.33;34.13;;;8.30;99.90;;;;;;5086375;27;20665;-62
2021/05/31 03:52:06;;;;;;;255.30;28.00;;;8.30;99.90;;;;;;5087265;28;20041;-61
2021/05/31 03:54:32;;;;;;;323.90;32.97;;;8.40;99.90;;;;;;5086173;28;20044;-61
2021/05/31 03:56:58;;;;;;;325.67;30.27;;;8.40;99.90;;;;;;5086488;28;20088;-63
2021/05/31 03:59:25;;;;;;;263.07;26.57;;;8.50;99.90;;;;;;5087047;28;20047;-62
2021/05/31 04:01:51;;;;;;;234.00;26.10;;;8.50;99.90;;;;;;5085642;28;20053;-61
2021/05/31 04:04:19;;;;;;;295.23;31.47;;;8.50;99.90;;;;;;5085388;27;20306;-62
2021/05/31 04:11:59;;;;;;;323.50;28.80;;;8.60;99.90;;;;;;5085504;28;20314;-62
2021/05/31 04:14:24;;;;;;;322.77;27.63;;;8.60;99.90;;;;;;5085623;28;20336;-62
2021/05/31 04:16:54;;;;;;;232.77;25.20;;;8.60;99.90;;;;;;5085708;27;20041;-62
2021/05/31 04:19:22;;;;;;;231.77;25.70;;;8.60;99.90;;;;;;5085176;27;20037;-62
2021/05/31 04:21:50;;;;;;;255.03;25.73;;;8.60;99.90;;;;;;5086365;27;20306;-64
2021/05/31 04:24:16;;;;;;;219.23;26.07;;;8.70;99.90;;;;;;5085184;28;20619;-63
2021/05/31 04:26:43;;;;;;;252.27;26.07;;;8.70;99.90;;;;;;5086781;27;20298;-62
2021/05/31 04:29:10;;;;;;;232.90;24.63;;;8.70;99.90;;;;;;5085309;27;20439;-64
2021/05/31 04:31:37;;;;;;;224.10;23.77;;;8.70;99.90;;;;;;5155820;27;20321;-62
2021/05/31 04:34:04;;;;;;;260.43;24.77;;;8.70;99.90;;;;;;5085299;28;20291;-62
2021/05/31 04:36:31;;;;;;;222.23;25.23;;;8.80;99.90;;;;;;5083057;28;20663;-63
2021/05/31 04:38:57;;;;;;;215.20;26.23;;;8.80;99.90;;;;;;5081174;28;20309;-62
2021/05/31 04:41:23;;;;;;;288.97;26.57;;;8.80;99.90;;;;;;5074584;27;20303;-62
2021/05/31 04:43:49;;;;;;;246.87;26.90;;;8.80;99.90;;;;;;5084014;27;20308;-62
2021/05/31 04:46:14;;;;;;;286.50;25.50;;;8.90;99.90;;;;;;5079305;27;20303;-63
2021/05/31 04:48:41;;;;;;;334.23;27.70;;;9.00;99.90;;;;;;5063102;28;20097;-63
2021/05/31 04:51:07;;;;;;;281.07;30.70;;;9.00;99.90;;;;;;5061638;28;20295;-62
2021/05/31 04:53:33;;;;;;;305.43;31.23;;;9.10;99.90;;;;;;5060733;28;20299;-62
2021/05/31 04:56:01;;;;;;;226.80;25.47;;;9.10;99.90;;;;;;5068252;27;20045;-63
2021/05/31 04:58:27;;;;;;;337.53;26.47;;;9.10;99.90;;;;;;5069406;27;20299;-63
2021/05/31 05:00:54;;;;;;;299.73;25.40;;;9.10;99.90;;;;;;5072550;28;20294;-60
2021/05/31 05:03:20;;;;;;;412.77;29.00;;;9.20;99.90;;;;;;5066563;27;20033;-63
2021/05/31 05:05:47;;;;;;;325.10;27.33;;;9.20;99.90;;;;;;5052307;28;20370;-63
2021/05/31 05:08:13;;;;;;;245.00;25.13;;;9.20;99.90;;;;;;5053438;27;20377;-63
2021/05/31 05:10:39;;;;;;;472.80;34.70;;;9.20;99.90;;;;;;5053778;28;20315;-63
2021/05/31 05:13:05;;;;;;;431.20;34.27;;;9.20;99.90;;;;;;5059510;27;20303;-63
2021/05/31 05:15:31;;;;;;;222.03;25.67;;;9.20;99.90;;;;;;5065437;28;20337;-63
2021/05/31 05:17:57;;;;;;;185.27;25.90;;;9.30;99.90;;;;;;5061154;27;20299;-63
2021/05/31 05:20:25;;;;;;;372.43;27.77;;;9.30;99.90;;;;;;5061560;27;20037;-63
2021/05/31 05:22:52;;;;;;;207.37;27.80;;;9.40;99.90;;;;;;5063960;27;20291;-64
2021/05/31 05:25:18;;;;;;;500.77;40.93;;;9.30;99.90;;;;;;5085168;27;20410;-63
2021/05/31 05:27:45;;;;;;;350.07;32.90;;;9.30;99.90;;;;;;5052785;27;20300;-63
2021/05/31 05:30:13;;;;;;;264.23;27.97;;;9.30;99.90;;;;;;5060639;27;20299;-62
2021/05/31 05:32:40;;;;;;;372.10;27.77;;;9.40;99.90;;;;;;5070021;28;20366;-63
2021/05/31 05:35:32;;;;;;;265.30;29.87;;;9.50;99.90;;;;;;5059917;27;20310;-62
2021/05/31 05:48:32;;;;;;;;;;;9.50;99.90;;;;;;5071160;28;20329;-63
2021/05/31 05:51:07;;;;;;;236.83;27.57;;;9.60;99.90;;;;;;5061293;27;19921;-63
2021/05/31 05:53:33;;;;;;;;;;;9.70;99.90;;;;;;5052647;27;20292;-63
2021/05/31 05:56:00;;;;;;;326.33;25.90;;;9.70;99.90;;;;;;5061955;27;20381;-63
2021/05/31 05:58:29;;;;;;;242.77;26.30;;;9.70;99.90;;;;;;5050978;27;20810;-64
2021/05/31 06:00:57;;;;;;;320.23;29.80;;;9.70;99.90;;;;;;5136557;27;20382;-64
2021/05/31 06:03:23;;;;;;;199.63;26.27;;;9.80;99.90;;;;;;5076208;28;20294;-66
2021/05/31 06:05:50;;;;;;;125.63;26.50;;;10.00;99.90;;;;;;5061538;27;20402;-67
2021/05/31 06:08:16;;;;;;;236.00;25.60;;;10.20;99.90;;;;;;5068835;27;20295;-68
2021/05/31 06:10:42;;;;;;;160.83;25.40;;;10.20;99.90;;;;;;5069754;27;20298;-62
2021/05/31 06:13:07;;;;;;;319.60;27.60;;;10.30;99.90;;;;;;5128217;27;20508;-62
2021/05/31 06:15:33;;;;;;;147.37;24.60;;;10.30;99.90;;;;;;5069009;28;20089;-62
2021/05/31 06:17:59;;;;;;;150.77;24.10;;;10.30;99.90;;;;;;5130134;27;20072;-60
2021/05/31 06:20:24;;;;;;;110.37;22.83;;;10.40;99.90;;;;;;5066187;27;20039;-60
2021/05/31 06:22:51;;;;;;;201.20;28.63;;;10.40;99.90;;;;;;5061157;27;20139;-60
2021/05/31 06:25:18;;;;;;;194.57;27.30;;;10.40;99.90;;;;;;5059849;27;20168;-59
2021/05/31 06:27:44;;;;;;;187.70;26.67;;;10.30;99.90;;;;;;5063925;27;20310;-60
2021/05/31 06:30:10;;;;;;;102.13;24.13;;;10.30;99.90;;;;;;5058553;27;20296;-60
2021/05/31 06:32:36;;;;;;;133.47;25.57;;;10.40;99.90;;;;;;5069689;27;20056;-60
2021/05/31 06:35:02;;;;;;;112.13;25.87;;;10.50;99.90;;;;;;5060600;27;20307;-60
2021/05/31 06:37:31;;;;;;;87.97;25.77;;;10.40;99.90;;;;;;5072269;27;20065;-61
2021/05/31 06:40:16;;;;;;;100.13;23.20;;;10.50;99.90;;;;;;5112434;27;20280;-61
2021/05/31 06:42:47;;;;;;;104.27;23.13;;;10.60;99.90;;;;;;5070314;27;20298;-60
2021/05/31 06:45:25;;;;;;;155.03;24.20;;;10.70;99.90;;;;;;5071540;27;20386;-60
2021/05/31 06:47:54;;;;;;;59.30;23.10;;;10.70;99.90;;;;;;5061213;27;20781;-61
2021/05/31 06:50:21;;;;;;;58.23;21.37;;;10.80;99.90;;;;;;5051603;27;20298;-62
2021/05/31 06:52:47;;;;;;;51.07;21.70;;;10.90;99.90;;;;;;5061348;27;20330;-59
2021/05/31 06:55:16;;;;;;;95.17;23.30;;;11.00;99.90;;;;;;5060201;27;20296;-59
2021/05/31 06:57:43;;;;;;;83.43;24.20;;;11.10;99.90;;;;;;5085533;28;20358;-59
2021/05/31 07:00:11;;;;;;;100.23;23.17;;;11.20;99.90;;;;;;5138545;27;20306;-60
2021/05/31 07:02:37;;;;;;;96.10;23.77;;;11.00;99.90;;;;;;5080273;27;20314;-61
2021/05/31 07:05:04;;;;;;;37.47;22.27;;;11.00;99.90;;;;;;5063739;27;20300;-60
2021/05/31 07:07:33;;;;;;;41.30;23.63;;;11.20;99.90;;;;;;5075779;27;20078;-61
2021/05/31 07:09:59;;;;;;;40.07;21.30;;;11.30;99.90;;;;;;5067718;27;20288;-60
2021/05/31 07:12:25;;;;;;;35.07;20.43;;;11.50;99.90;;;;;;5081703;27;20037;-61
2021/05/31 07:14:51;;;;;;;44.17;21.00;;;11.60;99.90;;;;;;5071709;27;20110;-60
2021/05/31 07:17:17;;;;;;;74.43;22.83;;;11.60;99.90;;;;;;5077666;27;20104;-61
2021/05/31 07:19:44;;;;;;;41.17;21.40;;;11.70;99.90;;;;;;5076950;27;20299;-61
2021/05/31 07:22:22;;;;;;;32.60;21.33;;;11.80;99.90;;;;;;5074351;27;20362;-61
2021/05/31 07:24:49;;;;;;;35.17;18.23;;;11.80;99.90;;;;;;5078088;27;20284;-61
2021/05/31 07:27:15;;;;;;;35.83;20.53;;;12.00;99.90;;;;;;5141972;27;20291;-61
2021/05/31 07:29:42;;;;;;;50.10;21.77;;;12.10;99.90;;;;;;5083940;27;20326;-61
2021/05/31 07:32:08;;;;;;;36.97;21.57;;;11.90;99.90;;;;;;5091387;27;20283;-61
2021/05/31 07:34:35;;;;;;;27.87;21.20;;;11.90;99.90;;;;;;5083882;27;20294;-62
2021/05/31 07:37:01;;;;;;;29.33;20.77;;;12.00;99.90;;;;;;5162061;27;20315;-61
2021/05/31 07:39:27;;;;;;;26.07;19.43;;;12.30;99.90;;;;;;5082136;27;20685;-61
2021/05/31 07:41:54;;;;;;;24.50;18.87;;;12.40;99.90;;;;;;5092561;27;20282;-61
2021/05/31 07:44:39;;;;;;;25.80;19.87;;;12.40;99.90;;;;;;5139960;27;20287;-62
2021/05/31 07:47:05;;;;;;;26.07;19.27;;;12.60;99.90;;;;;;5073756;28;20296;-62
2021/05/31 07:49:31;;;;;;;24.30;19.10;;;12.80;99.90;;;;;;5082564;27;20093;-62
2021/05/31 07:52:06;;;;;;;24.73;19.07;;;13.00;99.90;;;;;;5094420;27;20060;-62
2021/05/31 07:54:33;;;;;;;27.37;19.50;;;13.10;99.90;;;;;;5086434;27;20025;-60
2021/05/31 07:56:59;;;;;;;25.23;19.43;;;13.10;99.90;;;;;;5073814;27;20303;-62
2021/05/31 07:59:25;;;;;;;22.77;19.30;;;13.20;99.90;;;;;;5085505;28;20052;-62
2021/05/31 08:01:51;;;;;;;25.37;18.80;;;13.30;99.90;;;;;;5088026;27;20339;-62
2021/05/31 08:04:16;;;;;;;23.33;19.03;;;13.40;99.90;;;;;;5089084;27;20060;-62
2021/05/31 08:06:42;;;;;;;23.27;19.20;;;13.50;99.90;;;;;;5073277;27;20056;-62
2021/05/31 08:09:08;;;;;;;20.60;17.57;;;13.60;99.90;;;;;;5081326;27;20070;-63
2021/05/31 08:11:33;;;;;;;25.43;19.03;;;13.60;99.90;;;;;;5146269;27;20041;-62
2021/05/31 08:13:59;;;;;;;23.00;18.50;;;13.80;99.90;;;;;;5079202;27;20058;-62
2021/05/31 08:16:25;;;;;;;20.70;17.47;;;14.00;99.90;;;;;;5080328;27;20088;-60
2021/05/31 08:18:51;;;;;;;24.00;18.30;;;13.90;99.90;;;;;;5076755;27;20096;-60
2021/05/31 08:21:16;;;;;;;24.63;18.93;;;14.10;99.90;;;;;;5082471;27;20040;-61
2021/05/31 08:23:42;;;;;;;22.70;18.90;;;14.00;99.90;;;;;;5074429;27;20048;-62
2021/05/31 08:26:08;;;;;;;22.50;18.23;;;13.90;99.90;;;;;;5082115;27;20105;-61
2021/05/31 08:28:36;;;;;;;20.93;17.20;;;14.00;99.90;;;;;;5071762;28;20056;-62
2021/05/31 08:31:03;;;;;;;20.37;17.03;;;14.20;99.90;;;;;;5077458;27;20049;-61
2021/05/31 08:33:28;;;;;;;21.60;17.93;;;14.20;99.90;;;;;;5053411;27;20706;-62
2021/05/31 08:35:54;;;;;;;24.23;19.53;;;14.20;99.90;;;;;;5058987;27;20311;-61
2021/05/31 08:38:20;;;;;;;22.47;18.43;;;13.90;99.90;;;;;;5072921;28;20068;-62
2021/05/31 08:40:46;;;;;;;25.30;18.17;;;14.00;99.90;;;;;;5060434;27;20101;-61
2021/05/31 08:43:12;;;;;;;22.23;18.10;;;14.00;99.90;;;;;;5072408;27;20070;-61
2021/05/31 08:45:39;;;;;;;22.60;17.57;;;14.20;99.90;;;;;;5061498;27;20304;-61
2021/05/31 08:48:09;;;;;;;20.50;17.57;;;14.30;99.90;;;;;;5138386;27;20296;-61
2021/05/31 08:50:35;;;;;;;19.80;17.00;;;14.50;99.90;;;;;;5098482;27;20298;-61
2021/05/31 08:53:02;;;;;;;21.97;17.97;;;14.60;99.90;;;;;;5056791;27;20300;-62
2021/05/31 08:55:29;;;;;;;24.07;18.53;;;14.80;99.90;;;;;;5058464;28;20309;-62
2021/05/31 08:57:56;;;;;;;22.57;17.80;;;14.80;99.90;;;;;;5059158;27;20334;-63
2021/05/31 09:00:25;;;;;;;20.97;17.53;;;14.90;99.90;;;;;;5058787;27;20398;-62
2021/05/31 09:02:52;;;;;;;22.07;17.43;;;15.10;99.90;;;;;;5061303;27;20303;-62
2021/05/31 09:05:33;;;;;;;21.60;17.53;;;15.40;99.90;;;;;;5055497;27;20291;-62
2021/05/31 09:08:06;;;;;;;24.43;18.37;;;15.60;99.90;;;;;;5061373;27;20299;-62
2021/05/31 09:10:47;;;;;;;20.45;18.13;;;15.70;99.90;;;;;;5055952;27;20664;-62
2021/05/31 09:13:24;;;;;;;20.03;17.43;;;15.80;99.90;;;;;;5060648;27;20084;-61
2021/05/31 09:16:06;;;;;;;22.03;17.37;;;16.10;99.90;;;;;;5054851;27;20687;-60
2021/05/31 09:18:32;;;;;;;21.20;17.60;;;15.60;99.90;;;;;;5058311;27;20045;-60
2021/05/31 09:21:14;;;;;;;21.10;17.30;;;15.10;99.90;;;;;;5054197;27;20331;-59
2021/05/31 09:23:39;;;;;;;25.63;18.53;;;14.40;99.90;;;;;;5057658;27;20340;-60
2021/05/31 09:26:06;;;;;;;24.57;18.83;;;14.10;99.90;;;;;;5056202;27;20307;-60
2021/05/31 09:28:33;;;;;;;20.93;17.27;;;14.10;99.90;;;;;;5060444;27;20045;-59
2021/05/31 09:30:58;;;;;;;22.97;18.37;;;14.10;99.90;;;;;;5053663;27;20291;-60
2021/05/31 09:33:24;;;;;;;24.60;18.87;;;14.20;99.90;;;;;;5062982;27;20302;-60
2021/05/31 09:35:51;;;;;;;21.50;17.70;;;14.20;99.90;;;;;;5053899;27;20509;-59
2021/05/31 09:38:17;;;;;;;21.23;18.07;;;14.30;99.90;;;;;;5063618;27;20045;-58
2021/05/31 09:40:54;;;;;;;22.93;18.57;;;14.40;99.90;;;;;;5052052;27;20295;-60
2021/05/31 09:43:23;;;;;;;23.00;18.57;;;14.40;99.90;;;;;;5064170;28;20299;-59
2021/05/31 09:45:49;;;;;;;25.63;19.67;;;14.50;99.90;;;;;;5053069;27;20328;-60
2021/05/31 09:48:16;;;;;;;23.93;19.63;;;14.50;99.90;;;;;;5065352;27;20926;-60
2021/05/31 09:50:51;;;;;;;26.07;19.80;;;14.70;99.90;;;;;;5121625;27;20048;-60
2021/05/31 09:53:17;;;;;;;25.23;19.90;;;14.70;99.90;;;;;;5063609;27;20406;-60
2021/05/31 09:55:46;;;;;;;22.87;19.27;;;14.70;99.90;;;;;;5068119;28;20631;-65
2021/05/31 09:58:17;;;;;;;21.37;17.50;;;14.90;99.90;;;;;;5138140;27;20298;-65
2021/05/31 10:00:55;;;;;;;22.40;17.87;;;15.00;99.90;;;;;;5049416;27;20663;-63
2021/05/31 10:03:39;;;;;;;24.23;17.57;;;15.10;99.90;;;;;;5060832;27;20303;-62
2021/05/31 10:06:20;;;;;;;22.23;16.92;;;15.20;99.90;;;;;;5056012;28;20295;-62
2021/05/31 10:08:46;;;;;;;24.93;18.83;;;15.20;99.90;;;;;;5061566;27;20460;-62
2021/05/31 10:11:12;;;;;;;22.40;17.67;;;15.50;99.90;;;;;;5070370;28;20410;-64
2021/05/31 10:13:42;;;;;;;19.77;17.17;;;15.60;99.90;;;;;;5066920;28;20320;-65
2021/05/31 10:16:09;;;;;;;21.10;17.60;;;15.60;99.90;;;;;;5049463;27;20400;-61
2021/05/31 10:18:40;;;;;;;20.13;16.70;;;15.70;99.90;;;;;;5067414;27;20275;-63
2021/05/31 10:21:07;;;;;;;17.17;14.40;;;15.70;99.90;;;;;;5089297;27;20286;-61
2021/05/31 10:23:33;;;;;;;18.10;14.90;;;16.00;99.90;;;;;;5085728;27;20302;-61
2021/05/31 10:26:03;;;;;;;19.73;14.90;;;16.20;99.20;;;;;;5075299;27;20295;-61
2021/05/31 10:28:33;;;;;;;19.23;15.80;;;16.20;99.90;;;;;;5077832;27;20025;-63
2021/05/31 10:31:00;;;;;;;20.20;15.93;;;16.20;99.90;;;;;;5091899;27;20282;-62
2021/05/31 10:33:26;;;;;;;17.00;14.47;;;16.30;99.90;;;;;;5088020;27;20283;-63
2021/05/31 10:35:54;;;;;;;16.80;13.47;;;16.40;99.20;;;;;;5083567;28;20305;-63
2021/05/31 10:38:23;;;;;;;19.33;13.70;;;16.60;96.90;;;;;;5089975;27;20085;-63
2021/05/31 10:40:52;;;;;;;16.80;14.87;;;16.70;96.10;;;;;;5081809;27;20040;-63
2021/05/31 10:43:19;;;;;;;18.70;14.40;;;16.70;96.60;;;;;;5090245;28;20339;-64
2021/05/31 10:45:46;;;;;;;17.87;13.30;;;16.90;95.80;;;;;;5080749;27;20037;-63
2021/05/31 10:48:20;;;;;;;16.57;12.97;;;16.90;94.40;;;;;;5158969;27;20033;-61
2021/05/31 10:50:47;;;;;;;17.27;13.27;;;17.00;92.30;;;;;;5079339;27;20096;-63
2021/05/31 10:53:26;;;;;;;14.97;11.60;;;17.00;94.00;;;;;;5090881;27;20032;-64
2021/05/31 10:56:02;;;;;;;15.93;12.30;;;17.20;93.20;;;;;;5079669;27;20051;-62
2021/05/31 10:58:41;;;;;;;14.63;10.53;;;17.30;90.90;;;;;;5066963;27;20045;-61
2021/05/31 11:01:08;;;;;;;12.27;10.00;;;17.30;90.30;;;;;;5078908;27;20045;-62
2021/05/31 11:03:45;;;;;;;12.07;9.33;;;17.60;88.80;;;;;;5070046;27;20081;-63
2021/05/31 11:06:17;;;;;;;11.53;8.73;;;17.60;78.30;;;;;;5093283;27;20031;-63
2021/05/31 11:08:49;;;;;;;10.70;9.10;;;17.60;72.60;;;;;;5141027;28;20112;-64
2021/05/31 11:11:30;;;;;;;18.30;10.60;;;17.60;73.10;;;;;;5082679;27;20037;-63
2021/05/31 11:13:57;;;;;;;15.00;11.10;;;17.60;75.90;;;;;;5071235;28;20029;-63
2021/05/31 11:16:23;;;;;;;11.20;8.83;;;17.60;78.30;;;;;;5082285;27;20036;-63
2021/05/31 11:18:56;;;;;;;9.53;8.53;;;17.90;75.50;;;;;;5073674;27;20029;-64
2021/05/31 11:21:28;;;;;;;8.73;7.73;;;18.00;69.30;;;;;;5086044;27;20045;-62
2021/05/31 11:23:59;;;;;;;13.40;8.00;;;18.00;67.30;;;;;;5074025;27;20032;-63
2021/05/31 11:26:31;;;;;;;8.83;6.70;;;18.10;66.10;;;;;;5086832;27;20096;-62
2021/05/31 11:28:57;;;;;;;10.53;6.97;;;18.20;62.40;;;;;;5072402;27;20033;-62
2021/05/31 11:31:25;;;;;;;10.57;6.77;;;18.40;61.00;;;;;;5132787;27;20034;-63
2021/05/31 11:33:55;;;;;;;7.87;7.07;;;18.60;61.50;;;;;;5094974;28;20054;-62
2021/05/31 11:36:35;;;;;;;8.37;7.07;;;18.60;59.90;;;;;;5083380;27;20040;-60
2021/05/31 11:39:06;;;;;;;9.73;8.00;;;18.70;58.40;;;;;;5074835;28;20049;-60
2021/05/31 11:41:43;;;;;;;9.93;8.03;;;18.90;59.10;;;;;;5085470;28;20033;-60
2021/05/31 11:44:20;;;;;;;10.77;8.20;;;18.90;59.70;;;;;;5074802;28;20033;-60
2021/05/31 11:46:48;;;;;;;11.93;8.63;;;19.00;59.70;;;;;;5148280;27;20072;-62
2021/05/31 11:49:15;;;;;;;13.53;8.53;;;19.00;59.50;;;;;;5094521;27;20028;-61
2021/05/31 11:51:41;;;;;;;11.97;7.80;;;19.20;57.90;;;;;;5084175;27;20033;-61
2021/05/31 11:54:12;;;;;;;12.57;9.40;;;19.30;57.50;;;;;;5150761;27;20046;-60
2021/05/31 11:56:38;;;;;;;11.70;8.23;;;19.40;56.60;;;;;;5119846;27;20045;-61
2021/05/31 11:59:08;;;;;;;9.37;7.67;;;19.30;57.40;;;;;;5073678;27;20053;-61
2021/05/31 12:01:33;;;;;;;12.93;9.87;;;19.30;58.40;;;;;;5138219;27;20067;-62
2021/05/31 12:03:59;;;;;;;13.40;10.13;;;19.30;59.00;;;;;;5145657;27;20045;-62
2021/05/31 12:06:25;;;;;;;14.33;10.23;;;19.30;60.00;;;;;;5071611;27;20084;-61
2021/05/31 12:08:53;;;;;;;13.67;9.90;;;19.30;59.20;;;;;;5140336;27;20053;-60
2021/05/31 12:11:24;;;;;;;12.70;9.63;;;19.40;58.70;;;;;;5133340;27;20496;-63
2021/05/31 12:14:00;;;;;;;11.10;8.70;;;19.40;57.80;;;;;;5067686;27;20073;-60
2021/05/31 12:16:25;;;;;;;12.47;7.63;;;19.70;59.80;;;;;;5078379;27;20489;-61
2021/05/31 12:18:51;;;;;;;11.47;8.93;;;19.70;58.10;;;;;;5075310;28;20107;-60
2021/05/31 12:21:17;;;;;;;9.67;8.30;;;19.60;56.40;;;;;;5074207;27;20073;-62
2021/05/31 12:23:51;;;;;;;9.07;6.20;;;19.60;57.10;;;;;;5133816;27;20492;-60
2021/05/31 12:26:21;;;;;;;11.88;7.03;;;19.80;54.50;;;;;;5075135;27;20076;-61
2021/05/31 12:28:51;;;;;;;10.37;6.00;;;19.90;54.10;;;;;;5064541;27;20045;-60
2021/05/31 12:31:17;;;;;;;8.80;5.70;;;19.90;52.50;;;;;;5075967;28;20503;-61
2021/05/31 12:33:43;;;;;;;7.77;5.30;;;19.80;51.70;;;;;;5144964;27;20113;-62
2021/05/31 12:36:09;;;;;;;7.30;5.03;;;20.00;52.90;;;;;;5087692;28;20094;-63
2021/05/31 12:38:38;;;;;;;7.30;5.37;;;20.10;52.10;;;;;;5072278;27;20324;-60
2021/05/31 12:41:04;;;;;;;9.80;5.50;;;20.10;48.80;;;;;;5068280;28;20045;-62
2021/05/31 12:43:35;;;;;;;6.20;4.80;;;20.10;49.00;;;;;;5081767;27;20033;-61
2021/05/31 12:46:02;;;;;;;5.87;4.50;;;20.10;49.00;;;;;;5069911;27;20070;-61
2021/05/31 12:48:28;;;;;;;6.87;4.20;;;20.10;48.70;;;;;;5071759;28;20060;-62
2021/05/31 12:50:57;;;;;;;8.03;4.17;;;20.30;48.00;;;;;;5089469;27;20035;-64
2021/05/31 12:53:27;;;;;;;7.77;3.90;;;20.40;46.30;;;;;;5088783;27;20115;-61